Hattiesburg Bobby L Chain Municipal Airport Hattiesburg US
ICAO: KHBG
IATA: HBG
Category: Medium
Scheduled Services: No

Elevation: 151 ft
TransAlt. 18000 ft.

Airport Communications:
ASOS:135.425
HOUSTON CNTR:126.8
CTAF/UNICOM:122.8

KHBG Zoom In..

If you have problems with the map follow the link
https://www.worldairports.se/pages/airport.php?
ICAO=KHBG

Runways:

(A) RW 13 length 6094 ft width 150 ft
---- / hdg 132

(B) RW 31 length 6094 ft width 150 ft
---- / hdg 312

Location; KHBG
Day. 14 / Time. 04.53 Zulu
* Altimeter: 29.84
* Temperature: 11° c. 51.8°f.
* Wind from: 000° Speed 00 kn.
Dewpoint: 10° c.
Visibility: 7 Statute Miles.
Clouds: Overcast 600 ft.

KHBG 140453Z AUTO 00000KT 7SM OVC006 11/10 A2984 RMK AO2 CIG 004V008 SLP103 T01110100


Wind - Calm.

 
 
jpsmedia worldairports.se 2019   terms of use